Time;durP1;ratioP1;P1;durP2;ratioP2;P2;SDS_P1;SDS_P2;PMS_P1;PMS_P2;Temp;Humidity;BMP_temperature;BMP_pressure;BME280_temperature;BME280_humidity;BME280_pressure;Samples;Min_cycle;Max_cycle;Signal;HPM_P1;HPM_P2
2021/01/02 00:00:48;;;;;;;10.25;5.40;;;;;12.00;100985.00;;;;5068739;28;20696;-76
2021/01/02 00:03:48;;;;;;;10.10;5.82;;;;;12.00;100987.00;;;;5068275;28;20214;-77
2021/01/02 00:06:23;;;;;;;9.27;5.22;;;;;12.00;100985.00;;;;5033396;28;20206;-77
2021/01/02 00:08:53;;;;;;;10.63;5.18;;;;;12.00;100989.00;;;;5061064;28;20599;-77
2021/01/02 00:11:31;;;;;;;11.52;5.72;;;;;11.90;100989.00;;;;5068878;28;20202;-77
2021/01/02 00:14:22;;;;;;;11.88;5.70;;;;;11.90;100993.00;;;;5069065;28;20211;-77
2021/01/02 00:17:25;;;;;;;8.40;5.25;;;;;11.90;100990.00;;;;5058998;28;20667;-77
2021/01/02 00:20:06;;;;;;;10.57;5.80;;;;;11.90;100996.00;;;;5066343;28;20560;-77
2021/01/02 00:22:51;;;;;;;9.93;5.35;;;;;11.90;100989.00;;;;5068298;28;20561;-77
2021/01/02 00:25:22;;;;;;;9.95;5.53;;;;;11.90;101003.00;;;;5057269;28;20222;-77
2021/01/02 00:28:17;;;;;;;9.68;5.95;;;;;11.80;101000.00;;;;5049328;28;20207;-77
2021/01/02 00:31:12;;;;;;;9.60;5.80;;;;;11.80;100994.00;;;;5025316;28;20203;-77
2021/01/02 00:34:06;;;;;;;10.38;5.82;;;;;11.80;100993.00;;;;5048939;28;20203;-77
2021/01/02 00:36:40;;;;;;;8.80;5.50;;;;;11.80;100999.00;;;;5055225;28;20293;-77
2021/01/02 00:39:11;;;;;;;9.60;6.15;;;;;11.80;101002.00;;;;5062820;28;20257;-77
2021/01/02 00:41:39;;;;;;;8.73;5.13;;;;;11.80;100999.00;;;;5054887;28;20711;-77
2021/01/02 00:44:12;;;;;;;10.63;6.97;;;;;11.80;101004.00;;;;5068415;28;20734;-77
2021/01/02 00:46:39;;;;;;;11.80;6.00;;;;;11.80;101000.00;;;;5068065;28;20203;-77
2021/01/02 00:49:09;;;;;;;9.75;5.32;;;;;11.80;101003.00;;;;5068817;28;20199;-77
2021/01/02 00:51:48;;;;;;;10.40;6.20;;;;;11.80;100997.00;;;;5068341;28;20207;-77
2021/01/02 00:54:28;;;;;;;10.85;6.22;;;;;11.80;100988.00;;;;5068358;28;20203;-77
2021/01/02 00:57:03;;;;;;;8.73;5.40;;;;;11.80;100998.00;;;;5066646;28;20198;-77
2021/01/02 00:59:52;;;;;;;8.75;5.30;;;;;11.80;100998.00;;;;5055136;28;20230;-77
2021/01/02 01:03:03;;;;;;;11.30;5.88;;;;;11.80;100995.00;;;;5048959;28;20196;-76
2021/01/02 01:05:36;;;;;;;8.88;5.70;;;;;11.80;100999.00;;;;5049133;28;20645;-77
2021/01/02 01:08:04;;;;;;;8.85;5.45;;;;;11.80;101000.00;;;;5065469;28;20207;-77
2021/01/02 01:10:33;;;;;;;10.18;5.47;;;;;11.80;101002.00;;;;5068349;28;20198;-77
2021/01/02 01:13:11;;;;;;;8.45;5.65;;;;;11.80;101000.00;;;;5053939;28;20302;-77
2021/01/02 01:15:38;;;;;;;12.07;6.00;;;;;11.90;101000.00;;;;5054613;28;20234;-77
2021/01/02 01:18:31;;;;;;;11.15;6.15;;;;;11.80;101008.00;;;;5050528;28;20214;-77
2021/01/02 01:21:00;;;;;;;10.90;5.90;;;;;11.80;101008.00;;;;5047999;28;20254;-77
2021/01/02 01:23:38;;;;;;;12.05;5.43;;;;;11.80;101009.00;;;;5067225;28;20567;-77
2021/01/02 01:26:26;;;;;;;10.98;6.03;;;;;11.70;101012.00;;;;5068055;28;20217;-77
2021/01/02 01:28:59;;;;;;;9.95;6.22;;;;;11.80;101009.00;;;;5040914;28;20282;-77
2021/01/02 01:31:31;;;;;;;11.73;6.18;;;;;11.80;101015.00;;;;5060510;28;20794;-77
2021/01/02 01:34:00;;;;;;;10.05;6.28;;;;;11.80;101016.00;;;;5050519;28;20618;-77
2021/01/02 01:36:34;;;;;;;13.02;6.75;;;;;11.80;101027.00;;;;5059409;28;20199;-77
2021/01/02 01:39:04;;;;;;;10.90;6.32;;;;;11.80;101026.00;;;;5067728;28;20199;-77
2021/01/02 01:41:35;;;;;;;10.20;5.88;;;;;11.80;101022.00;;;;5066495;28;20754;-77
2021/01/02 01:44:38;;;;;;;10.52;6.47;;;;;11.70;101027.00;;;;5067331;28;20191;-77
2021/01/02 01:47:14;;;;;;;10.27;5.88;;;;;11.80;101030.00;;;;5054332;28;20207;-77
2021/01/02 01:50:22;;;;;;;10.15;5.63;;;;;11.70;101032.00;;;;5054127;28;20217;-76
2021/01/02 01:53:27;;;;;;;10.50;6.25;;;;;11.70;101031.00;;;;5066685;28;20202;-76
2021/01/02 01:56:00;;;;;;;8.20;5.10;;;;;11.80;101030.00;;;;5067048;28;20199;-77
2021/01/02 01:58:54;;;;;;;9.98;6.15;;;;;11.70;101029.00;;;;5067521;28;20206;-76
2021/01/02 02:01:25;;;;;;;12.45;5.90;;;;;11.80;101023.00;;;;5058746;28;20219;-77
2021/01/02 02:04:26;;;;;;;10.15;6.32;;;;;11.70;101033.00;;;;5048179;28;20202;-77
2021/01/02 02:06:59;;;;;;;12.32;6.70;;;;;11.80;101028.00;;;;5051571;28;20243;-77
2021/01/02 02:09:40;;;;;;;11.05;6.15;;;;;11.70;101031.00;;;;5058192;28;20203;-77
2021/01/02 02:12:20;;;;;;;12.60;7.15;;;;;11.80;101024.00;;;;5066902;28;20293;-77
2021/01/02 02:15:04;;;;;;;10.15;6.55;;;;;11.80;101033.00;;;;5067958;28;20242;-77
2021/01/02 02:17:42;;;;;;;12.02;6.93;;;;;11.70;101030.00;;;;5049880;28;20767;-77
2021/01/02 02:20:11;;;;;;;11.13;6.88;;;;;11.70;101033.00;;;;5047913;28;20262;-77
2021/01/02 02:22:40;;;;;;;10.77;6.53;;;;;11.70;101029.00;;;;5057693;28;20245;-77
2021/01/02 02:25:10;;;;;;;13.18;8.00;;;;;11.70;101034.00;;;;5048295;28;20204;-77
2021/01/02 02:27:39;;;;;;;12.15;7.05;;;;;11.70;101033.00;;;;5066636;28;20203;-77
2021/01/02 02:30:08;;;;;;;11.15;7.15;;;;;11.70;101027.00;;;;5067345;28;20206;-77
2021/01/02 02:32:38;;;;;;;10.18;7.03;;;;;11.70;101037.00;;;;5065759;28;20203;-77
2021/01/02 02:35:09;;;;;;;15.18;7.72;;;;;11.70;101035.00;;;;5067276;28;20294;-77
2021/01/02 02:37:44;;;;;;;11.75;7.65;;;;;11.60;101042.00;;;;5065952;28;20298;-77
2021/01/02 02:40:17;;;;;;;11.77;6.72;;;;;11.70;101032.00;;;;5066974;28;20269;-77
2021/01/02 02:42:48;;;;;;;14.88;6.93;;;;;11.70;101044.00;;;;5069562;28;20201;-77
2021/01/02 02:45:17;;;;;;;10.95;6.35;;;;;11.70;101040.00;;;;5070927;28;20248;-77
2021/01/02 02:47:46;;;;;;;12.70;7.05;;;;;11.70;101036.00;;;;5070218;28;20199;-77
2021/01/02 02:50:21;;;;;;;11.23;7.82;;;;;11.60;101036.00;;;;5070722;28;20209;-77
2021/01/02 02:52:56;;;;;;;10.25;6.45;;;;;11.70;101044.00;;;;5069078;28;20194;-77
2021/01/02 02:55:24;;;;;;;14.07;7.05;;;;;11.70;101039.00;;;;5062136;28;20199;-77
2021/01/02 02:57:51;;;;;;;11.95;7.88;;;;;11.70;101044.00;;;;5059143;28;20207;-77
2021/01/02 03:00:19;;;;;;;11.70;7.53;;;;;11.70;101042.00;;;;5056460;28;20606;-78
2021/01/02 03:02:49;;;;;;;12.90;7.72;;;;;11.60;101040.00;;;;5068492;28;20644;-77
2021/01/02 03:05:18;;;;;;;11.70;6.75;;;;;11.60;101036.00;;;;5070044;28;20244;-77
2021/01/02 03:07:45;;;;;;;12.23;6.95;;;;;11.60;101039.00;;;;5070296;28;20526;-77
2021/01/02 03:10:14;;;;;;;9.52;6.05;;;;;11.60;101037.00;;;;5058625;28;20211;-77
2021/01/02 03:12:42;;;;;;;11.20;7.20;;;;;11.60;101036.00;;;;5057068;28;20215;-77
2021/01/02 03:15:11;;;;;;;10.68;6.70;;;;;11.50;101043.00;;;;5060528;28;20273;-77
2021/01/02 03:17:39;;;;;;;10.50;7.13;;;;;11.50;101033.00;;;;5069962;28;20214;-77
2021/01/02 03:20:08;;;;;;;12.35;7.38;;;;;11.50;101031.00;;;;5060545;28;20227;-76
2021/01/02 03:22:34;;;;;;;12.13;7.05;;;;;11.50;101040.00;;;;5070380;28;20195;-77
2021/01/02 03:25:01;;;;;;;11.02;7.10;;;;;11.50;101035.00;;;;5069252;28;20202;-77
2021/01/02 03:27:28;;;;;;;11.88;7.22;;;;;11.50;101039.00;;;;5070456;28;20718;-77
2021/01/02 03:29:55;;;;;;;10.38;6.50;;;;;11.50;101034.00;;;;5064257;28;20199;-77
2021/01/02 03:32:21;;;;;;;12.75;7.82;;;;;11.50;101041.00;;;;5056753;28;20661;-77
2021/01/02 03:34:48;;;;;;;13.15;7.30;;;;;11.50;101037.00;;;;5070175;28;20213;-77
2021/01/02 03:37:15;;;;;;;12.07;7.03;;;;;11.40;101039.00;;;;5070210;28;20703;-77
2021/01/02 03:39:42;;;;;;;12.10;7.13;;;;;11.40;101043.00;;;;5050321;28;20211;-77
2021/01/02 03:42:09;;;;;;;10.48;6.43;;;;;11.40;101034.00;;;;5062589;28;20199;-77
2021/01/02 03:44:36;;;;;;;13.25;7.43;;;;;11.40;101037.00;;;;5070224;28;20203;-77
2021/01/02 03:47:07;;;;;;;11.63;7.85;;;;;11.40;101039.00;;;;5068553;28;20214;-77
2021/01/02 03:49:33;;;;;;;12.95;7.72;;;;;11.40;101031.00;;;;5056106;28;20207;-77
2021/01/02 03:52:02;;;;;;;11.60;6.32;;;;;11.40;101036.00;;;;5059624;28;20221;-77
2021/01/02 03:54:29;;;;;;;12.32;7.05;;;;;11.40;101033.00;;;;5065623;28;20291;-77
2021/01/02 03:56:56;;;;;;;13.60;7.63;;;;;11.40;101039.00;;;;5053234;28;21056;-77
2021/01/02 03:59:23;;;;;;;13.90;8.07;;;;;11.40;101043.00;;;;5068582;28;20696;-77
2021/01/02 04:01:54;;;;;;;11.90;6.97;;;;;11.40;101038.00;;;;5069091;28;20214;-77
2021/01/02 04:04:21;;;;;;;11.52;6.82;;;;;11.40;101042.00;;;;5057962;28;20195;-77
2021/01/02 04:06:48;;;;;;;11.05;6.95;;;;;11.40;101048.00;;;;5052942;28;20636;-77
2021/01/02 04:09:15;;;;;;;19.88;8.10;;;;;11.30;101039.00;;;;5066779;28;20248;-77
2021/01/02 04:11:43;;;;;;;12.52;7.50;;;;;11.30;101048.00;;;;5068674;28;20202;-77
2021/01/02 04:14:11;;;;;;;10.77;6.88;;;;;11.30;101046.00;;;;5069376;28;20230;-76
2021/01/02 04:16:38;;;;;;;12.00;6.20;;;;;11.30;101049.00;;;;5056111;28;20200;-77
2021/01/02 04:19:05;;;;;;;12.30;7.35;;;;;11.30;101045.00;;;;5061013;28;20256;-77
2021/01/02 04:21:32;;;;;;;13.73;7.82;;;;;11.30;101046.00;;;;5051692;28;20227;-77
2021/01/02 04:23:59;;;;;;;12.95;7.60;;;;;11.30;101047.00;;;;5055710;28;20601;-77
2021/01/02 04:26:26;;;;;;;10.10;6.70;;;;;11.30;101044.00;;;;5049081;28;20196;-77
2021/01/02 04:28:55;;;;;;;10.27;6.50;;;;;11.20;101042.00;;;;5058148;28;20572;-77
2021/01/02 04:31:22;;;;;;;13.77;8.30;;;;;11.20;101039.00;;;;5069088;28;20210;-77
2021/01/02 04:33:49;;;;;;;10.90;6.68;;;;;11.20;101046.00;;;;5067363;28;20754;-76
2021/01/02 04:36:17;;;;;;;12.23;7.82;;;;;11.20;101047.00;;;;5069581;28;20214;-77
2021/01/02 04:38:44;;;;;;;12.15;8.07;;;;;11.20;101045.00;;;;5067051;28;20199;-77
2021/01/02 04:41:14;;;;;;;12.18;7.22;;;;;11.20;101046.00;;;;5049459;28;20968;-76
2021/01/02 04:43:44;;;;;;;10.50;6.72;;;;;11.20;101036.00;;;;5055664;28;20644;-77
2021/01/02 04:46:13;;;;;;;11.73;7.20;;;;;11.20;101028.00;;;;5068023;28;20195;-77
2021/01/02 04:48:41;;;;;;;11.93;8.02;;;;;11.20;101037.00;;;;5067690;28;20207;-76
2021/01/02 04:51:09;;;;;;;12.40;7.32;;;;;11.20;101041.00;;;;5068832;28;20210;-76
2021/01/02 04:53:36;;;;;;;10.75;7.30;;;;;11.20;101047.00;;;;5066947;28;20257;-77
2021/01/02 04:56:06;;;;;;;10.32;6.75;;;;;11.10;101039.00;;;;5066895;28;20210;-77
2021/01/02 04:58:35;;;;;;;11.75;7.07;;;;;11.10;101041.00;;;;5054294;28;20194;-77
2021/01/02 05:01:03;;;;;;;11.95;6.90;;;;;11.10;101044.00;;;;5067792;28;20597;-77
2021/01/02 05:03:33;;;;;;;10.98;6.60;;;;;11.10;101044.00;;;;5065824;28;20190;-77
2021/01/02 05:06:00;;;;;;;11.75;7.43;;;;;11.10;101054.00;;;;5068053;28;20579;-77
2021/01/02 05:08:27;;;;;;;11.45;7.60;;;;;11.20;101052.00;;;;5067396;28;20203;-77
2021/01/02 05:11:00;;;;;;;11.50;7.13;;;;;11.10;101060.00;;;;5067120;28;20596;-77
2021/01/02 05:13:32;;;;;;;11.55;6.55;;;;;11.10;101052.00;;;;5065613;28;20622;-76
2021/01/02 05:16:16;;;;;;;13.80;7.30;;;;;11.00;101059.00;;;;5067866;28;20274;-77
2021/01/02 05:18:57;;;;;;;11.27;7.32;;;;;11.00;101059.00;;;;5067223;28;20199;-77
2021/01/02 05:21:25;;;;;;;11.60;7.18;;;;;11.10;101059.00;;;;5067806;28;20230;-77
2021/01/02 05:24:11;;;;;;;12.40;7.32;;;;;10.90;101056.00;;;;5067449;28;20649;-77
2021/01/02 05:26:41;;;;;;;10.68;6.95;;;;;11.00;101046.00;;;;5067599;28;20209;-77
2021/01/02 05:29:17;;;;;;;12.35;7.97;;;;;10.90;101051.00;;;;5061993;28;20191;-77
2021/01/02 05:31:45;;;;;;;10.07;6.63;;;;;11.00;101052.00;;;;5052211;28;20246;-77
2021/01/02 05:34:15;;;;;;;11.75;7.72;;;;;11.00;101053.00;;;;5055528;28;20203;-76
2021/01/02 05:36:42;;;;;;;13.05;7.43;;;;;11.00;101059.00;;;;5067787;28;20211;-77
2021/01/02 05:39:10;;;;;;;10.63;7.25;;;;;11.00;101064.00;;;;5066409;28;20672;-77
2021/01/02 05:41:48;;;;;;;11.90;7.40;;;;;10.90;101075.00;;;;5066973;28;20234;-77
2021/01/02 05:44:15;;;;;;;9.35;6.18;;;;;11.00;101071.00;;;;5066748;28;20269;-77
2021/01/02 05:46:50;;;;;;;10.05;6.25;;;;;11.00;101065.00;;;;5048504;28;20653;-77
2021/01/02 05:49:35;;;;;;;12.75;7.32;;;;;10.90;101070.00;;;;5067401;28;20259;-76
2021/01/02 05:52:04;;;;;;;10.65;7.07;;;;;11.00;101068.00;;;;5068028;28;20214;-76
2021/01/02 05:57:07;;;;;;;9.95;6.72;;;;;11.10;101068.00;;;;4698108;23;20226;-76
2021/01/02 05:59:35;;;;;;;11.93;7.47;;;;;11.10;101072.00;;;;5010571;28;20204;-76
2021/01/02 06:02:21;;;;;;;14.10;7.22;;;;;11.00;101077.00;;;;5009903;28;20255;-76
2021/01/02 06:04:57;;;;;;;10.63;6.80;;;;;11.00;101076.00;;;;5019974;28;20215;-76
2021/01/02 06:07:24;;;;;;;12.13;7.55;;;;;11.10;101086.00;;;;5007817;28;20213;-76
2021/01/02 06:09:52;;;;;;;11.32;6.70;;;;;11.00;101083.00;;;;5019664;28;20200;-76
2021/01/02 06:12:27;;;;;;;12.57;7.22;;;;;11.00;101082.00;;;;5027243;28;20231;-75
2021/01/02 06:14:54;;;;;;;10.93;6.85;;;;;11.10;101084.00;;;;5029113;28;20196;-76
2021/01/02 06:17:32;;;;;;;12.40;7.18;;;;;11.00;101081.00;;;;5031668;28;20211;-76
2021/01/02 06:20:02;;;;;;;11.23;7.07;;;;;11.00;101081.00;;;;5031447;28;20211;-76
2021/01/02 06:22:30;;;;;;;13.02;8.15;;;;;11.10;101089.00;;;;5018298;28;20637;-76
2021/01/02 06:24:57;;;;;;;10.90;7.07;;;;;11.10;101090.00;;;;5011155;28;20201;-76
2021/01/02 06:27:24;;;;;;;11.05;7.20;;;;;11.10;101092.00;;;;5011860;28;20209;-76
2021/01/02 06:29:53;;;;;;;11.07;7.43;;;;;11.10;101086.00;;;;5011720;28;20542;-76
2021/01/02 06:32:21;;;;;;;14.27;8.32;;;;;11.10;101087.00;;;;5012001;28;20287;-76
2021/01/02 06:35:19;;;;;;;10.95;7.10;;;;;11.00;101096.00;;;;5011546;28;20212;-76
2021/01/02 06:38:05;;;;;;;13.05;8.35;;;;;11.00;101090.00;;;;5011155;28;20304;-76
2021/01/02 06:40:39;;;;;;;12.57;8.48;;;;;11.10;101091.00;;;;5011727;28;20232;-76
2021/01/02 06:43:08;;;;;;;13.10;8.07;;;;;11.10;101102.00;;;;5011598;28;20215;-76
2021/01/02 06:45:47;;;;;;;12.27;7.03;;;;;11.00;101100.00;;;;5011534;28;20201;-76
2021/01/02 06:48:44;;;;;;;11.27;7.40;;;;;11.00;101095.00;;;;5011133;28;20267;-76
2021/01/02 06:51:32;;;;;;;13.23;7.07;;;;;11.00;101108.00;;;;4955487;28;20226;-76
2021/01/02 06:54:00;;;;;;;12.32;7.57;;;;;11.10;101096.00;;;;5021640;28;20302;-76
2021/01/02 06:56:35;;;;;;;10.75;7.78;;;;;11.10;101099.00;;;;5017844;28;20258;-76
2021/01/02 06:59:03;;;;;;;11.77;7.40;;;;;11.10;101102.00;;;;5010635;28;20290;-76
2021/01/02 07:01:40;;;;;;;14.25;8.20;;;;;11.10;101104.00;;;;5010982;28;20220;-76
2021/01/02 07:04:07;;;;;;;13.90;7.03;;;;;11.10;101102.00;;;;5011088;28;20565;-76
2021/01/02 07:06:44;;;;;;;13.13;8.10;;;;;11.00;101103.00;;;;5010869;28;20204;-76
2021/01/02 07:09:25;;;;;;;12.05;7.68;;;;;11.00;101109.00;;;;5011127;28;20666;-75
2021/01/02 07:12:11;;;;;;;15.05;7.30;;;;;11.00;101109.00;;;;5010584;28;20242;-75
2021/01/02 07:14:38;;;;;;;10.85;7.00;;;;;11.10;101120.00;;;;4990652;28;20209;-76
2021/01/02 07:17:06;;;;;;;11.82;7.15;;;;;11.10;101118.00;;;;5001714;28;20236;-74
2021/01/02 07:19:44;;;;;;;16.42;7.85;;;;;11.00;101117.00;;;;5010430;28;20263;-74
2021/01/02 07:22:20;;;;;;;12.52;7.50;;;;;11.10;101119.00;;;;5007379;28;20670;-74
2021/01/02 07:24:49;;;;;;;18.10;9.32;;;;;11.10;101120.00;;;;4990641;28;20280;-74
2021/01/02 07:27:17;;;;;;;14.75;8.50;;;;;11.10;101122.00;;;;5004147;28;20667;-75
2021/01/02 07:29:45;;;;;;;16.52;8.52;;;;;11.10;101120.00;;;;4991939;28;20696;-75
2021/01/02 07:32:13;;;;;;;13.85;7.90;;;;;11.10;101125.00;;;;4997071;28;20225;-75
2021/01/02 07:34:41;;;;;;;12.95;7.85;;;;;11.10;101121.00;;;;5010435;28;20267;-74
2021/01/02 07:37:10;;;;;;;14.05;8.18;;;;;11.10;101131.00;;;;4993812;28;20210;-74
2021/01/02 07:39:39;;;;;;;16.02;8.07;;;;;11.10;101134.00;;;;5000860;28;20206;-74
2021/01/02 07:42:11;;;;;;;13.80;7.65;;;;;11.00;101143.00;;;;4990654;28;20698;-74
2021/01/02 07:44:39;;;;;;;16.70;8.65;;;;;11.10;101138.00;;;;4990844;28;20535;-75
2021/01/02 07:47:07;;;;;;;14.77;9.02;;;;;11.10;101143.00;;;;5007864;28;20220;-75
2021/01/02 07:49:34;;;;;;;14.73;8.20;;;;;11.10;101157.00;;;;4991079;28;20753;-75
2021/01/02 07:52:01;;;;;;;16.23;8.90;;;;;11.10;101151.00;;;;5002950;28;20231;-74
2021/01/02 07:54:29;;;;;;;14.73;8.32;;;;;11.10;101150.00;;;;4991536;28;20206;-75
2021/01/02 07:56:57;;;;;;;15.32;8.13;;;;;11.10;101143.00;;;;4990025;28;20574;-75
2021/01/02 07:59:25;;;;;;;19.10;8.70;;;;;11.10;101148.00;;;;4990040;28;20206;-75
2021/01/02 08:01:56;;;;;;;15.88;8.27;;;;;11.10;101152.00;;;;4990808;28;20206;-75
2021/01/02 08:04:23;;;;;;;15.43;9.02;;;;;11.10;101148.00;;;;4990547;28;20201;-75
2021/01/02 08:06:52;;;;;;;14.85;8.25;;;;;11.10;101158.00;;;;4993141;28;20209;-75
2021/01/02 08:09:19;;;;;;;17.73;8.88;;;;;11.10;101148.00;;;;5000496;28;20229;-75
2021/01/02 08:11:58;;;;;;;13.35;8.02;;;;;11.10;101157.00;;;;5002759;28;20226;-75
2021/01/02 08:14:27;;;;;;;15.32;7.97;;;;;11.10;101154.00;;;;4990743;28;20213;-75
2021/01/02 08:16:56;;;;;;;21.63;9.02;;;;;11.10;101158.00;;;;4989895;28;20197;-75
2021/01/02 08:19:23;;;;;;;17.92;8.80;;;;;11.20;101166.00;;;;4990160;28;20205;-75
2021/01/02 08:21:51;;;;;;;19.50;8.68;;;;;11.10;101168.00;;;;4990387;28;20193;-75
2021/01/02 08:24:19;;;;;;;17.67;7.88;;;;;11.20;101167.00;;;;4990210;28;20205;-74
2021/01/02 08:26:48;;;;;;;17.52;8.40;;;;;11.20;101176.00;;;;5004224;28;20257;-75
2021/01/02 08:29:16;;;;;;;20.73;9.18;;;;;11.20;101172.00;;;;4989942;28;20198;-75
2021/01/02 08:31:51;;;;;;;19.27;8.85;;;;;11.20;101176.00;;;;4989687;28;20226;-74
2021/01/02 08:34:36;;;;;;;16.30;8.73;;;;;11.10;101171.00;;;;4990454;28;20205;-76
2021/01/02 08:37:05;;;;;;;15.57;8.52;;;;;11.20;101182.00;;;;4994553;28;20196;-75
2021/01/02 08:39:32;;;;;;;15.55;8.25;;;;;11.30;101192.00;;;;5008711;28;20204;-76
2021/01/02 08:42:00;;;;;;;16.67;8.80;;;;;11.30;101188.00;;;;5021799;28;20659;-76
2021/01/02 08:44:30;;;;;;;19.70;8.82;;;;;11.30;101190.00;;;;4991917;28;20201;-75
2021/01/02 08:46:58;;;;;;;20.05;9.18;;;;;11.30;101193.00;;;;5007660;28;20208;-75
2021/01/02 08:49:29;;;;;;;23.70;10.25;;;;;11.30;101184.00;;;;4989792;28;20259;-75
2021/01/02 08:52:14;;;;;;;16.92;7.32;;;;;11.20;101195.00;;;;5004248;28;20236;-75
2021/01/02 08:54:41;;;;;;;18.65;8.90;;;;;11.30;101195.00;;;;4991800;28;20206;-75
2021/01/02 08:57:30;;;;;;;15.32;8.23;;;;;11.20;101193.00;;;;4992811;28;20311;-76
2021/01/02 09:00:19;;;;;;;14.73;7.85;;;;;11.10;101188.00;;;;4989428;28;20200;-76
2021/01/02 09:02:48;;;;;;;17.00;8.55;;;;;11.20;101183.00;;;;4990820;28;20189;-76
2021/01/02 09:05:16;;;;;;;18.52;8.75;;;;;11.20;101187.00;;;;5020225;28;20528;-76
2021/01/02 09:07:54;;;;;;;26.40;9.50;;;;;11.20;101187.00;;;;4996688;28;20200;-77
2021/01/02 09:10:25;;;;;;;18.48;8.85;;;;;11.30;101190.00;;;;5005442;28;20666;-77
2021/01/02 09:13:17;;;;;;;15.88;8.20;;;;;11.20;101193.00;;;;5005044;28;20201;-79
2021/01/02 09:15:53;;;;;;;19.77;8.52;;;;;11.30;101200.00;;;;5007391;28;20204;-79
2021/01/02 09:18:37;;;;;;;19.13;8.90;;;;;11.20;101191.00;;;;5008892;28;20192;-78
2021/01/02 09:21:20;;;;;;;18.13;8.65;;;;;11.30;101206.00;;;;5002844;28;20201;-78
2021/01/02 09:23:47;;;;;;;19.90;9.57;;;;;11.40;101201.00;;;;5007252;28;20723;-77
2021/01/02 09:26:22;;;;;;;17.17;8.75;;;;;11.30;101210.00;;;;4999461;28;20193;-78
2021/01/02 09:28:50;;;;;;;18.13;9.50;;;;;11.40;101209.00;;;;5007215;28;20200;-78
2021/01/02 09:31:18;;;;;;;19.17;9.80;;;;;11.40;101208.00;;;;5008035;28;20220;-78
2021/01/02 09:33:45;;;;;;;15.52;8.18;;;;;11.40;101205.00;;;;5006280;28;20259;-76
2021/01/02 09:36:14;;;;;;;18.33;9.25;;;;;11.40;101213.00;;;;5004081;28;20200;-76
2021/01/02 09:38:42;;;;;;;15.77;8.95;;;;;11.40;101215.00;;;;4996678;28;20742;-77
2021/01/02 09:41:11;;;;;;;13.90;7.93;;;;;11.40;101204.00;;;;5007775;28;20201;-77
2021/01/02 09:43:38;;;;;;;14.57;8.23;;;;;11.50;101205.00;;;;5006919;28;20205;-77
2021/01/02 09:46:04;;;;;;;20.35;10.45;;;;;11.50;101206.00;;;;5004435;28;20500;-77
2021/01/02 09:48:31;;;;;;;19.58;9.25;;;;;11.50;101217.00;;;;5008217;28;20255;-76
2021/01/02 09:50:58;;;;;;;18.83;9.65;;;;;11.50;101217.00;;;;5007873;28;20224;-77
2021/01/02 09:53:25;;;;;;;21.10;8.77;;;;;11.50;101219.00;;;;5007167;28;20231;-76
2021/01/02 09:55:51;;;;;;;17.98;9.05;;;;;11.50;101216.00;;;;5008563;28;20587;-76
2021/01/02 09:58:19;;;;;;;15.73;8.90;;;;;11.50;101209.00;;;;5008364;28;20232;-77
2021/01/02 10:00:46;;;;;;;17.73;8.73;;;;;11.50;101211.00;;;;5008329;28;20562;-77
2021/01/02 10:03:12;;;;;;;17.70;10.25;;;;;11.60;101208.00;;;;5006285;28;20201;-78
2021/01/02 10:05:39;;;;;;;17.27;8.27;;;;;11.60;101212.00;;;;5005259;28;20240;-78
2021/01/02 10:08:06;;;;;;;16.48;9.35;;;;;11.60;101222.00;;;;5007583;28;20208;-77
2021/01/02 10:10:33;;;;;;;18.38;9.65;;;;;11.60;101223.00;;;;5006936;28;20200;-76
2021/01/02 10:13:00;;;;;;;16.90;8.88;;;;;11.60;101220.00;;;;5008252;28;20205;-77
2021/01/02 10:15:28;;;;;;;17.60;9.10;;;;;11.60;101218.00;;;;4999470;28;20197;-77
2021/01/02 10:17:55;;;;;;;16.67;9.27;;;;;11.60;101216.00;;;;5001666;28;20205;-76
2021/01/02 10:20:22;;;;;;;14.68;8.35;;;;;11.60;101222.00;;;;5006584;28;20208;-76
2021/01/02 10:22:48;;;;;;;16.98;9.27;;;;;11.50;101226.00;;;;5006456;28;20351;-76
2021/01/02 10:25:15;;;;;;;18.50;9.18;;;;;11.60;101226.00;;;;5002878;28;20247;-76
2021/01/02 10:27:42;;;;;;;17.15;8.40;;;;;11.60;101223.00;;;;5008116;28;20216;-76
2021/01/02 10:30:12;;;;;;;15.75;8.80;;;;;11.60;101225.00;;;;5008247;28;20505;-76
2021/01/02 10:32:39;;;;;;;15.32;8.38;;;;;11.60;101225.00;;;;5007161;28;20221;-77
2021/01/02 10:35:10;;;;;;;15.38;9.35;;;;;11.60;101226.00;;;;5006735;28;20196;-77
2021/01/02 10:37:36;;;;;;;15.88;8.05;;;;;11.60;101229.00;;;;5005932;28;20216;-77
2021/01/02 10:40:06;;;;;;;15.63;8.80;;;;;11.60;101229.00;;;;5007854;28;20193;-76
2021/01/02 10:42:33;;;;;;;16.33;8.85;;;;;11.60;101222.00;;;;4994720;28;20201;-77
2021/01/02 10:45:01;;;;;;;18.75;8.85;;;;;11.70;101221.00;;;;4997123;28;20260;-77
2021/01/02 10:47:30;;;;;;;18.40;8.85;;;;;11.70;101220.00;;;;4998859;28;20213;-77
2021/01/02 10:49:58;;;;;;;18.38;9.55;;;;;11.70;101231.00;;;;5006990;28;20736;-77
2021/01/02 10:52:27;;;;;;;19.30;10.07;;;;;11.60;101228.00;;;;5007575;28;20221;-77
2021/01/02 10:54:55;;;;;;;16.23;8.35;;;;;11.70;101238.00;;;;5007677;28;20205;-77
2021/01/02 10:57:24;;;;;;;19.77;8.77;;;;;11.70;101233.00;;;;5007879;28;20233;-76
2021/01/02 10:59:52;;;;;;;18.67;8.32;;;;;11.70;101236.00;;;;5007312;28;20228;-77
2021/01/02 11:02:20;;;;;;;17.23;8.82;;;;;11.70;101236.00;;;;5010490;28;20684;-76
2021/01/02 11:04:47;;;;;;;19.33;9.00;;;;;11.70;101225.00;;;;5008702;28;20238;-76
2021/01/02 11:07:14;;;;;;;18.77;8.35;;;;;11.70;101237.00;;;;5011877;28;20201;-76
2021/01/02 11:09:44;;;;;;;12.27;6.90;;;;;11.70;101243.00;;;;5010939;28;20657;-76
2021/01/02 11:12:11;;;;;;;15.88;8.77;;;;;11.70;101233.00;;;;5002702;28;20235;-76
2021/01/02 11:14:39;;;;;;;13.82;7.22;;;;;11.80;101235.00;;;;5011010;28;20201;-76
2021/01/02 11:17:07;;;;;;;11.90;6.68;;;;;11.80;101231.00;;;;5008350;28;20201;-76
2021/01/02 11:19:34;;;;;;;13.93;8.05;;;;;11.90;101227.00;;;;5006303;28;20193;-76
2021/01/02 11:22:03;;;;;;;14.73;6.63;;;;;11.90;101225.00;;;;5006143;28;20279;-76
2021/01/02 11:24:32;;;;;;;13.48;7.65;;;;;11.90;101231.00;;;;5008523;28;20658;-76
2021/01/02 11:27:01;;;;;;;15.93;8.82;;;;;11.90;101229.00;;;;5007322;28;20263;-76
2021/01/02 11:29:30;;;;;;;17.75;10.32;;;;;11.90;101218.00;;;;5010171;28;20209;-77
2021/01/02 11:31:58;;;;;;;17.30;9.18;;;;;11.90;101206.00;;;;5005149;28;20229;-77
2021/01/02 11:34:26;;;;;;;13.43;7.90;;;;;11.80;101203.00;;;;4998658;28;20220;-77
2021/01/02 11:36:55;;;;;;;16.98;9.23;;;;;11.80;101211.00;;;;5002788;28;20197;-77
2021/01/02 11:39:22;;;;;;;13.55;8.40;;;;;11.80;101208.00;;;;5010082;28;20204;-77
2021/01/02 11:41:50;;;;;;;13.80;8.07;;;;;11.80;101199.00;;;;5008947;28;20205;-77
2021/01/02 11:44:19;;;;;;;15.68;8.10;;;;;11.80;101196.00;;;;5002596;28;20232;-77
2021/01/02 11:46:47;;;;;;;15.18;8.35;;;;;11.80;101199.00;;;;5008413;28;20197;-77
2021/01/02 11:49:17;;;;;;;17.08;9.07;;;;;11.80;101199.00;;;;5000055;28;20209;-77
2021/01/02 11:51:48;;;;;;;12.00;6.53;;;;;11.80;101196.00;;;;5006760;28;20228;-77
2021/01/02 11:54:15;;;;;;;16.20;8.40;;;;;11.80;101198.00;;;;5004881;28;20578;-76
2021/01/02 11:56:42;;;;;;;14.93;8.38;;;;;11.80;101196.00;;;;5008436;28;20225;-75
2021/01/02 11:59:09;;;;;;;13.38;8.02;;;;;11.80;101190.00;;;;5008513;28;20233;-76
2021/01/02 12:01:38;;;;;;;14.00;7.65;;;;;11.90;101180.00;;;;5005517;28;20209;-75
2021/01/02 12:04:07;;;;;;;14.20;8.55;;;;;11.90;101181.00;;;;5005171;28;22128;-75
2021/01/02 12:06:34;;;;;;;12.55;7.68;;;;;11.90;101181.00;;;;5010842;28;20193;-75
2021/01/02 12:09:01;;;;;;;13.43;8.00;;;;;12.00;101183.00;;;;5014744;28;20201;-75
2021/01/02 12:11:29;;;;;;;14.95;8.38;;;;;12.00;101178.00;;;;4997625;28;20241;-75
2021/01/02 12:13:57;;;;;;;14.32;7.63;;;;;12.00;101191.00;;;;5004611;28;20212;-76
2021/01/02 12:16:31;;;;;;;16.83;8.90;;;;;11.90;101182.00;;;;5001492;28;20197;-75
2021/01/02 12:18:58;;;;;;;16.15;8.75;;;;;12.00;101178.00;;;;5018241;28;20657;-74
2021/01/02 12:21:25;;;;;;;15.65;8.63;;;;;12.00;101178.00;;;;5009792;28;20212;-74
2021/01/02 12:23:52;;;;;;;12.23;7.78;;;;;12.00;101173.00;;;;5005171;28;20265;-74